sensor_id;sensor_type;location;lat;lon;timestamp;P1;durP1;ratioP1;P2;durP2;ratioP2
16193;SDS011;8204;53.582;10.080;2022-12-11T10:09:14;15.00;;;10.63;;
16193;SDS011;8204;53.582;10.080;2022-12-11T10:11:49;17.27;;;13.27;;
16193;SDS011;8204;53.582;10.080;2022-12-11T10:14:28;15.17;;;12.73;;
16193;SDS011;8204;53.582;10.080;2022-12-11T10:17:08;16.97;;;12.67;;
16193;SDS011;8204;53.582;10.080;2022-12-11T10:19:39;24.17;;;12.17;;
16193;SDS011;8204;53.582;10.080;2022-12-11T10:22:11;15.13;;;13.53;;
16193;SDS011;8204;53.582;10.080;2022-12-11T10:24:48;15.97;;;12.80;;
16193;SDS011;8204;53.582;10.080;2022-12-11T10:27:24;17.37;;;13.17;;
16193;SDS011;8204;53.582;10.080;2022-12-11T10:30:00;17.63;;;13.53;;
16193;SDS011;8204;53.582;10.080;2022-12-11T10:32:37;19.37;;;14.03;;
16193;SDS011;8204;53.582;10.080;2022-12-11T10:35:18;17.17;;;12.80;;
16193;SDS011;8204;53.582;10.080;2022-12-11T10:37:54;17.53;;;15.40;;
16193;SDS011;8204;53.582;10.080;2022-12-11T10:40:28;18.87;;;13.67;;
16193;SDS011;8204;53.582;10.080;2022-12-11T10:43:01;12.50;;;11.20;;
16193;SDS011;8204;53.582;10.080;2022-12-11T10:45:31;13.17;;;11.53;;
16193;SDS011;8204;53.582;10.080;2022-12-11T10:48:03;15.53;;;12.43;;
16193;SDS011;8204;53.582;10.080;2022-12-11T10:50:34;15.10;;;12.37;;
16193;SDS011;8204;53.582;10.080;2022-12-11T10:53:04;17.27;;;13.23;;
16193;SDS011;8204;53.582;10.080;2022-12-11T10:55:37;12.80;;;10.27;;
16193;SDS011;8204;53.582;10.080;2022-12-11T10:58:12;15.67;;;12.00;;
16193;SDS011;8204;53.582;10.080;2022-12-11T11:00:45;14.73;;;11.90;;
16193;SDS011;8204;53.582;10.080;2022-12-11T11:03:27;13.97;;;10.40;;
16193;SDS011;8204;53.582;10.080;2022-12-11T11:06:03;14.73;;;12.47;;
16193;SDS011;8204;53.582;10.080;2022-12-11T11:08:37;13.00;;;11.03;;
16193;SDS011;8204;53.582;10.080;2022-12-11T11:11:22;14.93;;;12.90;;
16193;SDS011;8204;53.582;10.080;2022-12-11T11:14:03;13.10;;;11.50;;
16193;SDS011;8204;53.582;10.080;2022-12-11T11:16:34;16.70;;;13.00;;
16193;SDS011;8204;53.582;10.080;2022-12-11T11:19:04;15.27;;;11.33;;
16193;SDS011;8204;53.582;10.080;2022-12-11T11:21:34;19.37;;;12.40;;
16193;SDS011;8204;53.582;10.080;2022-12-11T11:24:03;15.93;;;12.83;;
16193;SDS011;8204;53.582;10.080;2022-12-11T11:26:36;14.33;;;11.87;;
16193;SDS011;8204;53.582;10.080;2022-12-11T11:29:04;15.80;;;12.27;;
16193;SDS011;8204;53.582;10.080;2022-12-11T11:31:34;16.40;;;12.43;;
16193;SDS011;8204;53.582;10.080;2022-12-11T11:34:04;14.30;;;12.80;;
16193;SDS011;8204;53.582;10.080;2022-12-11T11:36:35;16.27;;;13.93;;
16193;SDS011;8204;53.582;10.080;2022-12-11T11:39:11;19.13;;;12.37;;
16193;SDS011;8204;53.582;10.080;2022-12-11T11:41:50;15.13;;;13.43;;
16193;SDS011;8204;53.582;10.080;2022-12-11T11:44:28;16.47;;;12.43;;
16193;SDS011;8204;53.582;10.080;2022-12-11T11:47:01;15.13;;;12.53;;
16193;SDS011;8204;53.582;10.080;2022-12-11T11:49:41;15.37;;;13.27;;
16193;SDS011;8204;53.582;10.080;2022-12-11T11:52:18;15.10;;;13.33;;
16193;SDS011;8204;53.582;10.080;2022-12-11T11:54:55;15.63;;;12.47;;
16193;SDS011;8204;53.582;10.080;2022-12-11T11:57:36;17.80;;;13.77;;
16193;SDS011;8204;53.582;10.080;2022-12-11T12:00:15;13.87;;;12.20;;
16193;SDS011;8204;53.582;10.080;2022-12-11T12:02:47;14.13;;;11.73;;
16193;SDS011;8204;53.582;10.080;2022-12-11T12:05:21;13.43;;;12.03;;
16193;SDS011;8204;53.582;10.080;2022-12-11T12:07:58;13.37;;;11.97;;
16193;SDS011;8204;53.582;10.080;2022-12-11T12:10:33;17.90;;;12.93;;
16193;SDS011;8204;53.582;10.080;2022-12-11T12:13:13;16.57;;;12.90;;
16193;SDS011;8204;53.582;10.080;2022-12-11T12:15:53;17.23;;;13.43;;
16193;SDS011;8204;53.582;10.080;2022-12-11T12:18:27;14.97;;;13.00;;
16193;SDS011;8204;53.582;10.080;2022-12-11T12:21:08;15.43;;;13.47;;
16193;SDS011;8204;53.582;10.080;2022-12-11T12:23:51;15.47;;;13.77;;
16193;SDS011;8204;53.582;10.080;2022-12-11T12:26:32;14.43;;;12.53;;
16193;SDS011;8204;53.582;10.080;2022-12-11T12:29:10;14.63;;;13.10;;
16193;SDS011;8204;53.582;10.080;2022-12-11T12:31:54;15.50;;;12.17;;
16193;SDS011;8204;53.582;10.080;2022-12-11T12:34:37;13.67;;;12.23;;
16193;SDS011;8204;53.582;10.080;2022-12-11T12:37:16;13.60;;;11.70;;
16193;SDS011;8204;53.582;10.080;2022-12-11T12:39:55;13.67;;;11.23;;
16193;SDS011;8204;53.582;10.080;2022-12-11T12:42:33;15.33;;;11.90;;
16193;SDS011;8204;53.582;10.080;2022-12-11T12:45:16;16.17;;;13.53;;
16193;SDS011;8204;53.582;10.080;2022-12-11T12:47:53;14.57;;;12.27;;
16193;SDS011;8204;53.582;10.080;2022-12-11T12:50:22;17.93;;;14.43;;
16193;SDS011;8204;53.582;10.080;2022-12-11T12:52:53;17.53;;;15.27;;
16193;SDS011;8204;53.582;10.080;2022-12-11T12:55:23;22.47;;;14.00;;
16193;SDS011;8204;53.582;10.080;2022-12-11T12:57:57;22.60;;;14.97;;
16193;SDS011;8204;53.582;10.080;2022-12-11T13:00:31;15.47;;;12.77;;
16193;SDS011;8204;53.582;10.080;2022-12-11T13:03:10;18.63;;;13.77;;
16193;SDS011;8204;53.582;10.080;2022-12-11T13:05:42;28.60;;;17.50;;
16193;SDS011;8204;53.582;10.080;2022-12-11T13:08:23;14.43;;;11.93;;
16193;SDS011;8204;53.582;10.080;2022-12-11T13:10:58;17.53;;;12.80;;
16193;SDS011;8204;53.582;10.080;2022-12-11T13:13:30;12.70;;;10.97;;
16193;SDS011;8204;53.582;10.080;2022-12-11T13:16:08;13.27;;;10.37;;
16193;SDS011;8204;53.582;10.080;2022-12-11T13:18:52;13.90;;;11.77;;
16193;SDS011;8204;53.582;10.080;2022-12-11T13:21:23;13.30;;;11.83;;
16193;SDS011;8204;53.582;10.080;2022-12-11T13:23:55;12.67;;;11.40;;
16193;SDS011;8204;53.582;10.080;2022-12-11T13:26:41;15.13;;;12.30;;
16193;SDS011;8204;53.582;10.080;2022-12-11T13:31:59;24.57;;;12.87;;
16193;SDS011;8204;53.582;10.080;2022-12-11T13:34:31;14.23;;;12.03;;
16193;SDS011;8204;53.582;10.080;2022-12-11T13:37:03;14.57;;;12.30;;
16193;SDS011;8204;53.582;10.080;2022-12-11T13:39:33;13.50;;;11.20;;
16193;SDS011;8204;53.582;10.080;2022-12-11T13:42:05;16.03;;;11.43;;
16193;SDS011;8204;53.582;10.080;2022-12-11T13:44:48;15.50;;;11.83;;
16193;SDS011;8204;53.582;10.080;2022-12-11T13:47:19;16.67;;;12.83;;
16193;SDS011;8204;53.582;10.080;2022-12-11T13:49:49;14.17;;;12.03;;
16193;SDS011;8204;53.582;10.080;2022-12-11T13:52:22;15.90;;;13.73;;
16193;SDS011;8204;53.582;10.080;2022-12-11T13:54:54;15.70;;;11.73;;
16193;SDS011;8204;53.582;10.080;2022-12-11T13:57:24;17.70;;;13.23;;
16193;SDS011;8204;53.582;10.080;2022-12-11T13:59:54;16.43;;;14.53;;
16193;SDS011;8204;53.582;10.080;2022-12-11T14:02:27;17.63;;;12.77;;
16193;SDS011;8204;53.582;10.080;2022-12-11T14:05:01;18.53;;;13.63;;
16193;SDS011;8204;53.582;10.080;2022-12-11T14:07:34;16.47;;;13.70;;
16193;SDS011;8204;53.582;10.080;2022-12-11T14:10:06;15.80;;;12.87;;
16193;SDS011;8204;53.582;10.080;2022-12-11T14:12:41;23.47;;;15.30;;
16193;SDS011;8204;53.582;10.080;2022-12-11T14:15:13;19.43;;;13.13;;
16193;SDS011;8204;53.582;10.080;2022-12-11T14:17:46;18.50;;;13.50;;
16193;SDS011;8204;53.582;10.080;2022-12-11T14:20:16;24.57;;;13.93;;
16193;SDS011;8204;53.582;10.080;2022-12-11T14:22:46;17.20;;;13.87;;
16193;SDS011;8204;53.582;10.080;2022-12-11T14:25:20;16.27;;;12.37;;
16193;SDS011;8204;53.582;10.080;2022-12-11T14:27:51;16.53;;;12.20;;
16193;SDS011;8204;53.582;10.080;2022-12-11T14:30:22;21.27;;;14.40;;
16193;SDS011;8204;53.582;10.080;2022-12-11T14:32:55;17.03;;;13.13;;
16193;SDS011;8204;53.582;10.080;2022-12-11T14:35:26;16.73;;;14.03;;
16193;SDS011;8204;53.582;10.080;2022-12-11T14:37:57;17.07;;;12.60;;
16193;SDS011;8204;53.582;10.080;2022-12-11T14:40:30;22.07;;;14.80;;
16193;SDS011;8204;53.582;10.080;2022-12-11T14:43:06;14.60;;;11.87;;
16193;SDS011;8204;53.582;10.080;2022-12-11T14:45:40;16.53;;;12.93;;
16193;SDS011;8204;53.582;10.080;2022-12-11T14:48:17;19.53;;;15.30;;
16193;SDS011;8204;53.582;10.080;2022-12-11T14:50:51;18.30;;;13.73;;
16193;SDS011;8204;53.582;10.080;2022-12-11T14:53:23;16.77;;;12.80;;
16193;SDS011;8204;53.582;10.080;2022-12-11T14:55:55;18.20;;;13.20;;
16193;SDS011;8204;53.582;10.080;2022-12-11T14:58:28;13.73;;;11.70;;
16193;SDS011;8204;53.582;10.080;2022-12-11T15:00:59;18.30;;;13.80;;
16193;SDS011;8204;53.582;10.080;2022-12-11T15:03:32;20.30;;;12.77;;
16193;SDS011;8204;53.582;10.080;2022-12-11T15:06:19;16.13;;;13.63;;
16193;SDS011;8204;53.582;10.080;2022-12-11T15:08:51;16.63;;;13.57;;
16193;SDS011;8204;53.582;10.080;2022-12-11T15:11:20;14.10;;;12.47;;
16193;SDS011;8204;53.582;10.080;2022-12-11T15:13:52;18.13;;;14.27;;
16193;SDS011;8204;53.582;10.080;2022-12-11T15:16:23;20.53;;;13.50;;
16193;SDS011;8204;53.582;10.080;2022-12-11T15:18:57;18.27;;;14.53;;
16193;SDS011;8204;53.582;10.080;2022-12-11T15:21:27;32.87;;;27.73;;
16193;SDS011;8204;53.582;10.080;2022-12-11T15:23:59;44.17;;;35.67;;
16193;SDS011;8204;53.582;10.080;2022-12-11T15:26:31;64.73;;;55.27;;
16193;SDS011;8204;53.582;10.080;2022-12-11T15:29:03;36.63;;;31.60;;
16193;SDS011;8204;53.582;10.080;2022-12-11T15:31:33;24.30;;;18.33;;
16193;SDS011;8204;53.582;10.080;2022-12-11T15:36:51;20.63;;;14.43;;
16193;SDS011;8204;53.582;10.080;2022-12-11T15:39:20;15.00;;;12.30;;
16193;SDS011;8204;53.582;10.080;2022-12-11T15:41:49;21.10;;;16.37;;
16193;SDS011;8204;53.582;10.080;2022-12-11T15:44:19;18.70;;;12.77;;
16193;SDS011;8204;53.582;10.080;2022-12-11T15:46:49;20.17;;;15.43;;
16193;SDS011;8204;53.582;10.080;2022-12-11T15:49:18;24.80;;;15.80;;
16193;SDS011;8204;53.582;10.080;2022-12-11T15:51:51;18.37;;;14.30;;
16193;SDS011;8204;53.582;10.080;2022-12-11T15:54:20;19.13;;;13.97;;
16193;SDS011;8204;53.582;10.080;2022-12-11T15:56:49;19.17;;;13.43;;
16193;SDS011;8204;53.582;10.080;2022-12-11T15:59:17;18.87;;;13.67;;
16193;SDS011;8204;53.582;10.080;2022-12-11T16:01:47;15.83;;;13.17;;
16193;SDS011;8204;53.582;10.080;2022-12-11T16:04:16;17.37;;;13.53;;
16193;SDS011;8204;53.582;10.080;2022-12-11T16:06:45;20.73;;;17.90;;
16193;SDS011;8204;53.582;10.080;2022-12-11T16:09:16;30.63;;;20.53;;
16193;SDS011;8204;53.582;10.080;2022-12-11T16:11:45;31.70;;;25.83;;
16193;SDS011;8204;53.582;10.080;2022-12-11T16:14:14;32.20;;;24.80;;
16193;SDS011;8204;53.582;10.080;2022-12-11T16:16:42;34.93;;;26.37;;
16193;SDS011;8204;53.582;10.080;2022-12-11T16:19:11;29.07;;;22.77;;
16193;SDS011;8204;53.582;10.080;2022-12-11T16:21:40;25.70;;;20.33;;
16193;SDS011;8204;53.582;10.080;2022-12-11T16:24:09;22.43;;;19.90;;
16193;SDS011;8204;53.582;10.080;2022-12-11T16:26:40;24.50;;;20.47;;
16193;SDS011;8204;53.582;10.080;2022-12-11T16:29:09;22.47;;;18.40;;
16193;SDS011;8204;53.582;10.080;2022-12-11T16:31:37;22.33;;;19.03;;
16193;SDS011;8204;53.582;10.080;2022-12-11T16:34:07;23.40;;;20.70;;
16193;SDS011;8204;53.582;10.080;2022-12-11T16:36:35;25.80;;;21.03;;
16193;SDS011;8204;53.582;10.080;2022-12-11T16:39:05;25.93;;;20.23;;
16193;SDS011;8204;53.582;10.080;2022-12-11T16:41:34;27.67;;;22.63;;
16193;SDS011;8204;53.582;10.080;2022-12-11T16:44:05;25.47;;;21.63;;
16193;SDS011;8204;53.582;10.080;2022-12-11T16:46:35;23.43;;;19.63;;
16193;SDS011;8204;53.582;10.080;2022-12-11T16:49:04;24.43;;;19.97;;
16193;SDS011;8204;53.582;10.080;2022-12-11T16:51:33;24.33;;;20.30;;
16193;SDS011;8204;53.582;10.080;2022-12-11T16:54:02;22.77;;;17.60;;
16193;SDS011;8204;53.582;10.080;2022-12-11T16:56:31;18.80;;;16.03;;
16193;SDS011;8204;53.582;10.080;2022-12-11T16:59:00;23.47;;;17.70;;
16193;SDS011;8204;53.582;10.080;2022-12-11T17:01:33;21.13;;;16.40;;
16193;SDS011;8204;53.582;10.080;2022-12-11T17:04:02;23.63;;;16.87;;
16193;SDS011;8204;53.582;10.080;2022-12-11T17:06:32;22.60;;;18.30;;
16193;SDS011;8204;53.582;10.080;2022-12-11T17:09:00;24.53;;;17.47;;
16193;SDS011;8204;53.582;10.080;2022-12-11T17:11:29;21.53;;;17.47;;
16193;SDS011;8204;53.582;10.080;2022-12-11T17:13:58;30.40;;;20.70;;
16193;SDS011;8204;53.582;10.080;2022-12-11T17:16:27;21.20;;;17.27;;
16193;SDS011;8204;53.582;10.080;2022-12-11T17:18:59;23.27;;;18.17;;
16193;SDS011;8204;53.582;10.080;2022-12-11T17:21:30;24.93;;;19.60;;
16193;SDS011;8204;53.582;10.080;2022-12-11T17:23:59;22.40;;;18.63;;
16193;SDS011;8204;53.582;10.080;2022-12-11T17:26:28;25.00;;;21.07;;
16193;SDS011;8204;53.582;10.080;2022-12-11T17:28:57;22.67;;;19.30;;
16193;SDS011;8204;53.582;10.080;2022-12-11T17:31:26;25.40;;;20.33;;
16193;SDS011;8204;53.582;10.080;2022-12-11T17:33:56;24.53;;;19.77;;
16193;SDS011;8204;53.582;10.080;2022-12-11T17:36:28;22.57;;;18.43;;
16193;SDS011;8204;53.582;10.080;2022-12-11T17:38:56;25.03;;;21.47;;
16193;SDS011;8204;53.582;10.080;2022-12-11T17:41:25;23.53;;;20.17;;
16193;SDS011;8204;53.582;10.080;2022-12-11T17:43:54;31.83;;;22.23;;
16193;SDS011;8204;53.582;10.080;2022-12-11T17:46:23;24.47;;;18.43;;
16193;SDS011;8204;53.582;10.080;2022-12-11T17:48:52;25.60;;;20.07;;
16193;SDS011;8204;53.582;10.080;2022-12-11T17:51:24;21.50;;;17.03;;
16193;SDS011;8204;53.582;10.080;2022-12-11T17:53:53;20.60;;;17.27;;
16193;SDS011;8204;53.582;10.080;2022-12-11T17:56:24;20.20;;;17.33;;
16193;SDS011;8204;53.582;10.080;2022-12-11T17:58:53;21.90;;;17.33;;
16193;SDS011;8204;53.582;10.080;2022-12-11T18:01:22;20.67;;;15.90;;
16193;SDS011;8204;53.582;10.080;2022-12-11T18:03:51;23.90;;;18.33;;
16193;SDS011;8204;53.582;10.080;2022-12-11T18:06:20;22.10;;;19.27;;
16193;SDS011;8204;53.582;10.080;2022-12-11T18:08:51;23.13;;;18.73;;
16193;SDS011;8204;53.582;10.080;2022-12-11T18:11:21;23.10;;;18.07;;
16193;SDS011;8204;53.582;10.080;2022-12-11T18:13:52;23.33;;;19.50;;
16193;SDS011;8204;53.582;10.080;2022-12-11T18:16:22;27.00;;;18.17;;
16193;SDS011;8204;53.582;10.080;2022-12-11T18:18:52;22.53;;;18.37;;
16193;SDS011;8204;53.582;10.080;2022-12-11T18:21:22;24.03;;;18.27;;
16193;SDS011;8204;53.582;10.080;2022-12-11T18:23:56;24.97;;;19.33;;
16193;SDS011;8204;53.582;10.080;2022-12-11T18:26:25;26.63;;;21.23;;
16193;SDS011;8204;53.582;10.080;2022-12-11T18:28:54;28.90;;;22.23;;
16193;SDS011;8204;53.582;10.080;2022-12-11T18:31:24;28.10;;;23.93;;
16193;SDS011;8204;53.582;10.080;2022-12-11T18:33:53;30.13;;;25.27;;
16193;SDS011;8204;53.582;10.080;2022-12-11T18:36:22;34.07;;;26.43;;
16193;SDS011;8204;53.582;10.080;2022-12-11T18:38:51;26.20;;;23.37;;
16193;SDS011;8204;53.582;10.080;2022-12-11T18:41:23;28.30;;;24.57;;
16193;SDS011;8204;53.582;10.080;2022-12-11T18:43:52;36.73;;;27.77;;
16193;SDS011;8204;53.582;10.080;2022-12-11T18:46:21;33.13;;;26.90;;
16193;SDS011;8204;53.582;10.080;2022-12-11T18:48:50;36.20;;;26.70;;
16193;SDS011;8204;53.582;10.080;2022-12-11T18:51:19;31.73;;;26.13;;
16193;SDS011;8204;53.582;10.080;2022-12-11T18:53:50;34.80;;;25.93;;
16193;SDS011;8204;53.582;10.080;2022-12-11T18:56:19;32.70;;;26.37;;
16193;SDS011;8204;53.582;10.080;2022-12-11T18:58:51;33.17;;;26.40;;
16193;SDS011;8204;53.582;10.080;2022-12-11T19:01:21;33.67;;;24.20;;
16193;SDS011;8204;53.582;10.080;2022-12-11T19:03:51;33.37;;;25.57;;
16193;SDS011;8204;53.582;10.080;2022-12-11T19:06:23;29.97;;;24.07;;
16193;SDS011;8204;53.582;10.080;2022-12-11T19:08:54;31.07;;;25.50;;
16193;SDS011;8204;53.582;10.080;2022-12-11T19:11:25;30.43;;;24.00;;
16193;SDS011;8204;53.582;10.080;2022-12-11T19:13:58;31.87;;;24.33;;
16193;SDS011;8204;53.582;10.080;2022-12-11T19:16:28;31.20;;;23.67;;
16193;SDS011;8204;53.582;10.080;2022-12-11T19:18:58;28.53;;;24.27;;
16193;SDS011;8204;53.582;10.080;2022-12-11T19:21:29;29.40;;;23.83;;
16193;SDS011;8204;53.582;10.080;2022-12-11T19:23:58;32.23;;;23.97;;
16193;SDS011;8204;53.582;10.080;2022-12-11T19:26:27;33.17;;;27.73;;
16193;SDS011;8204;53.582;10.080;2022-12-11T19:28:59;34.10;;;25.60;;
16193;SDS011;8204;53.582;10.080;2022-12-11T19:31:29;27.17;;;23.47;;
16193;SDS011;8204;53.582;10.080;2022-12-11T19:33:59;27.93;;;22.27;;
16193;SDS011;8204;53.582;10.080;2022-12-11T19:36:29;24.97;;;21.80;;
16193;SDS011;8204;53.582;10.080;2022-12-11T19:39:01;27.00;;;21.40;;
16193;SDS011;8204;53.582;10.080;2022-12-11T19:41:30;28.80;;;23.13;;
16193;SDS011;8204;53.582;10.080;2022-12-11T19:44:02;27.57;;;22.67;;
16193;SDS011;8204;53.582;10.080;2022-12-11T19:46:31;22.93;;;18.87;;
16193;SDS011;8204;53.582;10.080;2022-12-11T19:49:00;23.67;;;21.13;;
16193;SDS011;8204;53.582;10.080;2022-12-11T19:51:31;25.37;;;21.53;;
16193;SDS011;8204;53.582;10.080;2022-12-11T19:54:03;25.73;;;20.53;;
16193;SDS011;8204;53.582;10.080;2022-12-11T19:56:33;31.13;;;24.07;;
16193;SDS011;8204;53.582;10.080;2022-12-11T19:59:06;26.07;;;21.90;;
16193;SDS011;8204;53.582;10.080;2022-12-11T20:01:40;28.37;;;24.90;;
16193;SDS011;8204;53.582;10.080;2022-12-11T20:04:09;28.17;;;23.60;;
16193;SDS011;8204;53.582;10.080;2022-12-11T20:06:40;35.07;;;27.23;;
16193;SDS011;8204;53.582;10.080;2022-12-11T20:09:11;31.67;;;24.80;;
16193;SDS011;8204;53.582;10.080;2022-12-11T20:11:41;32.93;;;27.93;;
16193;SDS011;8204;53.582;10.080;2022-12-11T20:14:18;33.67;;;27.17;;
16193;SDS011;8204;53.582;10.080;2022-12-11T20:16:48;30.93;;;23.27;;
16193;SDS011;8204;53.582;10.080;2022-12-11T20:19:20;28.00;;;23.60;;
16193;SDS011;8204;53.582;10.080;2022-12-11T20:21:48;29.40;;;24.07;;
16193;SDS011;8204;53.582;10.080;2022-12-11T20:24:17;30.33;;;24.53;;
16193;SDS011;8204;53.582;10.080;2022-12-11T20:26:46;29.37;;;23.03;;
16193;SDS011;8204;53.582;10.080;2022-12-11T20:29:18;32.07;;;24.53;;
16193;SDS011;8204;53.582;10.080;2022-12-11T20:31:48;29.03;;;24.03;;
16193;SDS011;8204;53.582;10.080;2022-12-11T20:34:17;26.67;;;19.83;;
16193;SDS011;8204;53.582;10.080;2022-12-11T20:36:46;54.30;;;21.77;;
16193;SDS011;8204;53.582;10.080;2022-12-11T20:39:15;28.20;;;24.50;;
16193;SDS011;8204;53.582;10.080;2022-12-11T20:41:44;27.80;;;22.83;;
16193;SDS011;8204;53.582;10.080;2022-12-11T20:44:13;23.33;;;20.23;;
16193;SDS011;8204;53.582;10.080;2022-12-11T20:46:44;26.07;;;21.37;;
16193;SDS011;8204;53.582;10.080;2022-12-11T20:49:13;28.23;;;21.83;;
16193;SDS011;8204;53.582;10.080;2022-12-11T20:51:42;30.30;;;22.40;;
16193;SDS011;8204;53.582;10.080;2022-12-11T20:54:11;37.00;;;25.43;;
16193;SDS011;8204;53.582;10.080;2022-12-11T20:56:39;28.83;;;22.63;;
16193;SDS011;8204;53.582;10.080;2022-12-11T20:59:09;28.80;;;21.47;;
16193;SDS011;8204;53.582;10.080;2022-12-11T21:01:38;29.20;;;22.33;;
16193;SDS011;8204;53.582;10.080;2022-12-11T21:04:10;27.50;;;22.00;;
16193;SDS011;8204;53.582;10.080;2022-12-11T21:06:38;30.67;;;22.97;;
16193;SDS011;8204;53.582;10.080;2022-12-11T21:09:08;26.63;;;21.97;;
16193;SDS011;8204;53.582;10.080;2022-12-11T21:11:39;28.03;;;21.73;;
16193;SDS011;8204;53.582;10.080;2022-12-11T21:14:08;25.40;;;21.37;;
16193;SDS011;8204;53.582;10.080;2022-12-11T21:16:37;27.53;;;21.97;;
16193;SDS011;8204;53.582;10.080;2022-12-11T21:19:06;25.20;;;22.07;;
16193;SDS011;8204;53.582;10.080;2022-12-11T21:21:37;29.83;;;21.93;;
16193;SDS011;8204;53.582;10.080;2022-12-11T21:24:07;25.80;;;20.67;;
16193;SDS011;8204;53.582;10.080;2022-12-11T21:26:41;22.23;;;19.23;;
16193;SDS011;8204;53.582;10.080;2022-12-11T21:29:11;25.53;;;20.13;;
16193;SDS011;8204;53.582;10.080;2022-12-11T21:31:40;26.20;;;20.97;;
16193;SDS011;8204;53.582;10.080;2022-12-11T21:34:09;29.13;;;21.30;;
16193;SDS011;8204;53.582;10.080;2022-12-11T21:36:41;27.90;;;22.33;;
16193;SDS011;8204;53.582;10.080;2022-12-11T21:39:09;27.73;;;21.43;;
16193;SDS011;8204;53.582;10.080;2022-12-11T21:41:39;28.13;;;21.40;;
16193;SDS011;8204;53.582;10.080;2022-12-11T21:44:08;28.23;;;21.53;;
16193;SDS011;8204;53.582;10.080;2022-12-11T21:46:37;28.33;;;21.70;;
16193;SDS011;8204;53.582;10.080;2022-12-11T21:49:06;26.10;;;21.73;;
16193;SDS011;8204;53.582;10.080;2022-12-11T21:51:36;25.93;;;21.70;;
16193;SDS011;8204;53.582;10.080;2022-12-11T21:54:11;26.07;;;19.97;;
16193;SDS011;8204;53.582;10.080;2022-12-11T21:56:42;30.23;;;22.83;;
16193;SDS011;8204;53.582;10.080;2022-12-11T21:59:11;27.67;;;22.33;;
16193;SDS011;8204;53.582;10.080;2022-12-11T22:01:41;26.73;;;22.50;;
16193;SDS011;8204;53.582;10.080;2022-12-11T22:04:13;27.00;;;21.13;;
16193;SDS011;8204;53.582;10.080;2022-12-11T22:06:44;29.33;;;23.03;;
16193;SDS011;8204;53.582;10.080;2022-12-11T22:09:15;30.97;;;21.83;;
16193;SDS011;8204;53.582;10.080;2022-12-11T22:11:45;25.63;;;20.30;;
16193;SDS011;8204;53.582;10.080;2022-12-11T22:14:15;24.47;;;21.63;;
16193;SDS011;8204;53.582;10.080;2022-12-11T22:16:45;27.47;;;20.40;;
16193;SDS011;8204;53.582;10.080;2022-12-11T22:19:14;25.03;;;20.73;;
16193;SDS011;8204;53.582;10.080;2022-12-11T22:21:42;27.33;;;22.03;;
16193;SDS011;8204;53.582;10.080;2022-12-11T22:24:11;28.73;;;22.37;;
16193;SDS011;8204;53.582;10.080;2022-12-11T22:26:42;27.33;;;22.00;;
16193;SDS011;8204;53.582;10.080;2022-12-11T22:29:11;24.43;;;19.13;;
16193;SDS011;8204;53.582;10.080;2022-12-11T22:31:40;25.13;;;19.33;;
16193;SDS011;8204;53.582;10.080;2022-12-11T22:34:09;28.83;;;22.33;;
16193;SDS011;8204;53.582;10.080;2022-12-11T22:36:37;32.20;;;24.63;;
16193;SDS011;8204;53.582;10.080;2022-12-11T22:39:06;26.10;;;21.37;;
16193;SDS011;8204;53.582;10.080;2022-12-11T22:41:35;28.90;;;21.03;;
16193;SDS011;8204;53.582;10.080;2022-12-11T22:44:10;29.87;;;23.97;;
16193;SDS011;8204;53.582;10.080;2022-12-11T22:46:41;27.77;;;21.53;;
16193;SDS011;8204;53.582;10.080;2022-12-11T22:49:10;30.10;;;22.43;;
16193;SDS011;8204;53.582;10.080;2022-12-11T22:51:40;25.57;;;19.83;;
16193;SDS011;8204;53.582;10.080;2022-12-11T22:54:09;27.27;;;20.13;;
16193;SDS011;8204;53.582;10.080;2022-12-11T22:56:37;35.57;;;22.63;;
16193;SDS011;8204;53.582;10.080;2022-12-11T22:59:06;27.97;;;20.70;;
16193;SDS011;8204;53.582;10.080;2022-12-11T23:01:37;26.20;;;21.30;;
16193;SDS011;8204;53.582;10.080;2022-12-11T23:04:06;31.50;;;24.40;;
16193;SDS011;8204;53.582;10.080;2022-12-11T23:06:35;26.43;;;20.50;;
16193;SDS011;8204;53.582;10.080;2022-12-11T23:09:04;28.70;;;21.67;;
16193;SDS011;8204;53.582;10.080;2022-12-11T23:11:34;34.80;;;24.20;;
16193;SDS011;8204;53.582;10.080;2022-12-11T23:14:05;25.17;;;21.30;;
16193;SDS011;8204;53.582;10.080;2022-12-11T23:16:37;28.13;;;21.87;;
16193;SDS011;8204;53.582;10.080;2022-12-11T23:19:06;27.70;;;21.70;;
16193;SDS011;8204;53.582;10.080;2022-12-11T23:21:35;27.57;;;21.43;;
16193;SDS011;8204;53.582;10.080;2022-12-11T23:24:05;28.83;;;24.00;;
16193;SDS011;8204;53.582;10.080;2022-12-11T23:26:34;32.00;;;24.60;;
16193;SDS011;8204;53.582;10.080;2022-12-11T23:29:04;26.37;;;23.00;;
16193;SDS011;8204;53.582;10.080;2022-12-11T23:31:34;26.17;;;21.03;;
16193;SDS011;8204;53.582;10.080;2022-12-11T23:34:05;31.93;;;22.03;;
16193;SDS011;8204;53.582;10.080;2022-12-11T23:36:34;27.60;;;21.60;;
16193;SDS011;8204;53.582;10.080;2022-12-11T23:39:03;27.67;;;20.73;;
16193;SDS011;8204;53.582;10.080;2022-12-11T23:41:32;26.20;;;19.73;;
16193;SDS011;8204;53.582;10.080;2022-12-11T23:44:01;27.53;;;22.27;;
16193;SDS011;8204;53.582;10.080;2022-12-11T23:46:30;31.50;;;23.03;;
16193;SDS011;8204;53.582;10.080;2022-12-11T23:48:59;29.83;;;21.77;;
16193;SDS011;8204;53.582;10.080;2022-12-11T23:51:31;28.80;;;22.00;;
16193;SDS011;8204;53.582;10.080;2022-12-11T23:54:00;27.43;;;20.10;;
16193;SDS011;8204;53.582;10.080;2022-12-11T23:56:29;23.47;;;18.87;;
16193;SDS011;8204;53.582;10.080;2022-12-11T23:58:58;25.50;;;18.37;;
